Alum Bank, Pennsylvania
Current Conditions -  °F | °C
As of 5:54 PM on Wednesday 26 Nov 2014 (Local Time) from KJST Reporting Station
Haze Haze  
Wind Chill: -4°   Ceiling: 300
Heat Index: -1°   Visibility: 3mi
Dew Point: -2°   Wind: 6mph
Humidity: 92%   Direction: 310°NW
Pressure: 29.92"   Gusts: NA
Location:  40.18°N, 78.61°W
Report Text: KJST 262254Z AUTO 31005KT 3SM BR OVC003 M01/M02 A2992 RMK AO2 SNE36 SLP157 P0000 T10111022
Loading
Personal Weather Stations






























Interactive Weather Map New forecast layout! Learn more

10-Day Weather Forecast

Advertisements
Track Severe Weather on mobile